createdAt,value
2018-11-04T00:00:19.899Z,29.27
2018-11-04T00:02:49.345Z,30.97
2018-11-04T00:05:18.521Z,29.20
2018-11-04T00:07:48.759Z,31.17
2018-11-04T00:10:17.711Z,30.73
2018-11-04T00:12:46.614Z,28.07
2018-11-04T00:15:15.511Z,28.17
2018-11-04T00:17:44.381Z,36.13
2018-11-04T00:20:14.417Z,30.43
2018-11-04T00:22:43.300Z,29.23
2018-11-04T00:25:13.350Z,29.47
2018-11-04T00:27:42.280Z,28.30
2018-11-04T00:30:13.812Z,28.93
2018-11-04T00:32:43.241Z,30.43
2018-11-04T00:35:12.344Z,31.20
2018-11-04T00:37:41.257Z,26.43
2018-11-04T00:40:10.196Z,27.40
2018-11-04T00:42:39.073Z,30.50
2018-11-04T00:45:09.425Z,27.57
2018-11-04T00:47:39.038Z,27.13
2018-11-04T00:50:13.665Z,30.53
2018-11-04T00:52:43.267Z,27.00
2018-11-04T00:55:12.575Z,30.73
2018-11-04T00:57:41.644Z,28.40
2018-11-04T01:00:18.370Z,29.33
2018-11-04T01:02:48.367Z,27.83
2018-11-04T01:05:18.041Z,26.53
2018-11-04T01:07:46.979Z,27.90
2018-11-04T01:10:15.884Z,27.40
2018-11-04T01:12:45.408Z,25.53
2018-11-04T01:15:15.220Z,29.27
2018-11-04T01:17:44.952Z,29.40
2018-11-04T01:20:17.739Z,27.30
2018-11-04T01:22:46.723Z,27.27
2018-11-04T01:25:15.628Z,27.43
2018-11-04T01:27:44.578Z,28.67
2018-11-04T01:30:14.955Z,26.23
2018-11-04T01:32:44.391Z,22.97
2018-11-04T01:35:13.256Z,22.37
2018-11-04T01:37:42.160Z,22.87
2018-11-04T01:40:11.244Z,24.17
2018-11-04T01:42:40.247Z,22.53
2018-11-04T01:45:10.582Z,22.67
2018-11-04T01:47:39.659Z,21.67
2018-11-04T01:50:12.687Z,21.17
2018-11-04T01:52:41.551Z,22.77
2018-11-04T01:55:11.322Z,22.33
2018-11-04T01:57:40.261Z,23.47
2018-11-04T02:00:13.284Z,21.20
2018-11-04T02:02:42.946Z,22.67
2018-11-04T02:05:12.627Z,21.30
2018-11-04T02:07:41.620Z,18.77
2018-11-04T02:10:12.382Z,21.07
2018-11-04T02:12:41.304Z,21.57
2018-11-04T02:15:11.845Z,22.33
2018-11-04T02:17:40.747Z,20.30
2018-11-04T02:20:11.231Z,23.00
2018-11-04T02:22:40.465Z,18.97
2018-11-04T02:25:10.672Z,20.33
2018-11-04T02:27:39.709Z,18.63
2018-11-04T02:30:11.559Z,20.63
2018-11-04T02:32:40.644Z,17.77
2018-11-04T02:35:09.642Z,20.03
2018-11-04T02:37:38.800Z,18.30
2018-11-04T02:40:07.678Z,22.17
2018-11-04T02:42:36.837Z,20.90
2018-11-04T02:45:06.481Z,19.83
2018-11-04T02:47:35.515Z,18.97
2018-11-04T02:50:04.444Z,16.40
2018-11-04T02:52:33.341Z,20.67
2018-11-04T02:55:02.276Z,20.00
2018-11-04T02:57:31.147Z,15.87
2018-11-04T03:00:00.038Z,15.70
2018-11-04T03:02:28.957Z,16.07
2018-11-04T03:04:57.821Z,15.33
2018-11-04T03:07:26.720Z,17.03
2018-11-04T03:09:55.602Z,16.63
2018-11-04T03:12:24.494Z,19.37
2018-11-04T03:14:53.375Z,17.40
2018-11-04T03:17:22.309Z,19.10
2018-11-04T03:19:51.167Z,16.60
2018-11-04T03:22:20.055Z,20.70
2018-11-04T03:24:49.017Z,16.70
2018-11-04T03:27:17.923Z,20.03
2018-11-04T03:29:46.829Z,14.73
2018-11-04T03:32:15.744Z,16.97
2018-11-04T03:34:44.662Z,15.23
2018-11-04T03:37:13.502Z,16.40
2018-11-04T03:39:42.396Z,14.33
2018-11-04T03:42:11.324Z,17.47
2018-11-04T03:44:40.287Z,17.07
2018-11-04T03:47:09.204Z,15.30
2018-11-04T03:49:38.117Z,15.50
2018-11-04T03:52:07.513Z,18.60
2018-11-04T03:54:36.387Z,17.80
2018-11-04T03:57:05.503Z,16.50
2018-11-04T03:59:34.457Z,14.07
2018-11-04T04:02:03.337Z,12.10
2018-11-04T04:04:32.184Z,14.60
2018-11-04T04:07:01.071Z,16.93
2018-11-04T04:09:29.965Z,15.40
2018-11-04T04:11:58.876Z,15.70
2018-11-04T04:14:27.781Z,16.50
2018-11-04T04:16:56.663Z,15.27
2018-11-04T04:19:25.514Z,13.90
2018-11-04T04:21:54.428Z,18.60
2018-11-04T04:24:23.296Z,14.93
2018-11-04T04:26:52.152Z,14.70
2018-11-04T04:29:21.061Z,16.93
2018-11-04T04:31:49.938Z,16.87
2018-11-04T04:34:18.824Z,14.57
2018-11-04T04:36:47.736Z,17.07
2018-11-04T04:39:17.761Z,16.30
2018-11-04T04:41:46.716Z,16.57
2018-11-04T04:44:15.601Z,17.83
2018-11-04T04:46:44.554Z,16.97
2018-11-04T04:49:14.022Z,16.07
2018-11-04T04:51:42.955Z,18.33
2018-11-04T04:54:11.875Z,15.60
2018-11-04T04:56:40.776Z,17.70
2018-11-04T04:59:09.784Z,14.10
2018-11-04T05:01:38.685Z,13.43
2018-11-04T05:04:07.588Z,15.40
2018-11-04T05:06:36.439Z,14.13
2018-11-04T05:09:06.742Z,14.60
2018-11-04T05:11:35.642Z,13.13
2018-11-04T05:14:04.555Z,16.80
2018-11-04T05:16:33.441Z,15.37
2018-11-04T05:19:02.343Z,14.37
2018-11-04T05:21:31.188Z,17.10
2018-11-04T05:24:00.064Z,17.27
2018-11-04T05:26:28.959Z,17.83
2018-11-04T05:28:57.820Z,19.20
2018-11-04T05:31:26.724Z,16.43
2018-11-04T05:33:55.613Z,16.50
2018-11-04T05:36:24.507Z,17.07
2018-11-04T05:38:53.402Z,33.40
2018-11-04T05:41:22.243Z,23.43
2018-11-04T05:43:52.001Z,17.90
2018-11-04T05:46:20.876Z,40.33
2018-11-04T05:48:49.797Z,16.07
2018-11-04T05:51:18.721Z,18.13
2018-11-04T05:53:47.643Z,17.33
2018-11-04T05:56:16.533Z,14.33
2018-11-04T05:58:45.397Z,15.90
2018-11-04T06:01:14.291Z,13.33
2018-11-04T06:03:43.277Z,15.13
2018-11-04T06:06:12.211Z,16.93
2018-11-04T06:08:41.080Z,17.43
2018-11-04T06:11:10.021Z,19.90
2018-11-04T06:13:38.944Z,15.33
2018-11-04T06:16:08.298Z,14.37
2018-11-04T06:18:37.174Z,18.77
2018-11-04T06:21:06.240Z,19.17
2018-11-04T06:23:35.126Z,18.37
2018-11-04T06:26:04.024Z,16.03
2018-11-04T06:28:32.994Z,17.27
2018-11-04T06:31:01.904Z,16.07
2018-11-04T06:33:30.829Z,18.73
2018-11-04T06:35:59.679Z,15.13
2018-11-04T06:38:28.567Z,15.50
2018-11-04T06:40:57.500Z,16.60
2018-11-04T06:43:26.456Z,16.80
2018-11-04T06:45:55.373Z,18.80
2018-11-04T06:48:24.284Z,18.77
2018-11-04T06:50:53.234Z,15.17
2018-11-04T06:53:22.113Z,14.97
2018-11-04T06:55:51.066Z,16.00
2018-11-04T06:58:19.930Z,15.33
2018-11-04T07:00:48.806Z,15.50
2018-11-04T07:03:17.703Z,15.00
2018-11-04T07:05:46.607Z,18.57
2018-11-04T07:08:15.481Z,17.47
2018-11-04T07:10:44.365Z,15.53
2018-11-04T07:13:13.247Z,14.60
2018-11-04T07:15:42.115Z,15.17
2018-11-04T07:18:11.048Z,16.17
2018-11-04T07:20:39.982Z,18.63
2018-11-04T07:23:08.848Z,15.17
2018-11-04T07:25:37.829Z,14.27
2018-11-04T07:28:06.768Z,16.67
2018-11-04T07:30:35.640Z,18.07
2018-11-04T07:33:04.539Z,18.57
2018-11-04T07:35:33.473Z,16.93
2018-11-04T07:38:02.381Z,18.27
2018-11-04T07:40:31.304Z,14.83
2018-11-04T07:43:00.212Z,16.73
2018-11-04T07:45:29.087Z,19.87
2018-11-04T07:47:57.973Z,16.83
2018-11-04T07:50:26.900Z,13.90
2018-11-04T07:52:55.806Z,17.77
2018-11-04T07:55:24.715Z,16.43
2018-11-04T07:57:53.584Z,14.23
2018-11-04T08:00:22.478Z,18.63
2018-11-04T08:02:51.459Z,19.50
2018-11-04T08:05:20.364Z,17.00
2018-11-04T08:07:49.235Z,18.87
2018-11-04T08:10:18.147Z,15.53
2018-11-04T08:12:47.053Z,16.37
2018-11-04T08:15:15.983Z,16.27
2018-11-04T08:17:44.880Z,15.47
2018-11-04T08:20:13.797Z,18.63
2018-11-04T08:22:42.669Z,18.43
2018-11-04T08:25:11.612Z,15.13
2018-11-04T08:27:40.557Z,16.40
2018-11-04T08:30:10.130Z,17.13
2018-11-04T08:32:39.014Z,17.77
2018-11-04T08:35:07.962Z,15.67
2018-11-04T08:37:36.842Z,18.00
2018-11-04T08:40:06.477Z,16.70
2018-11-04T08:42:35.316Z,18.43
2018-11-04T08:45:04.486Z,17.77
2018-11-04T08:47:33.373Z,13.80
2018-11-04T08:50:02.264Z,16.30
2018-11-04T08:52:31.252Z,17.97
2018-11-04T08:55:00.303Z,18.50
2018-11-04T08:57:29.205Z,20.77
2018-11-04T08:59:58.165Z,19.27
2018-11-04T09:02:27.034Z,20.93
2018-11-04T09:04:55.939Z,21.07
2018-11-04T09:07:24.878Z,19.97
2018-11-04T09:09:53.741Z,16.17
2018-11-04T09:12:22.671Z,20.33
2018-11-04T09:14:51.601Z,17.00
2018-11-04T09:17:20.471Z,19.93
2018-11-04T09:19:49.425Z,16.33
2018-11-04T09:22:18.380Z,19.87
2018-11-04T09:24:47.207Z,17.13
2018-11-04T09:27:16.151Z,18.47
2018-11-04T09:29:45.079Z,16.83
2018-11-04T09:32:13.987Z,17.00
2018-11-04T09:34:43.026Z,17.20
2018-11-04T09:37:11.892Z,16.77
2018-11-04T09:39:40.749Z,18.53
2018-11-04T09:42:09.671Z,22.80
2018-11-04T09:44:38.528Z,34.97
2018-11-04T09:47:07.456Z,154.07
2018-11-04T09:49:36.391Z,43.63
2018-11-04T09:52:05.419Z,86.60
2018-11-04T09:54:34.323Z,51.57
2018-11-04T09:57:03.302Z,36.67
2018-11-04T09:59:32.178Z,31.47
2018-11-04T10:02:01.168Z,25.30
2018-11-04T10:04:30.087Z,30.30
2018-11-04T10:06:58.992Z,43.27
2018-11-04T10:09:27.876Z,26.23
2018-11-04T10:11:56.861Z,30.07
2018-11-04T10:14:25.728Z,33.23
2018-11-04T10:16:54.598Z,33.20
2018-11-04T10:19:23.827Z,100.00
2018-11-04T10:21:52.443Z,43.83
2018-11-04T10:24:21.373Z,29.67
2018-11-04T10:26:50.573Z,39.07
2018-11-04T10:29:19.435Z,55.83
2018-11-04T10:31:48.356Z,43.03
2018-11-04T10:34:17.269Z,30.37
2018-11-04T10:36:46.189Z,29.97
2018-11-04T10:39:15.137Z,26.00
2018-11-04T10:41:44.526Z,30.70
2018-11-04T10:44:13.400Z,42.47
2018-11-04T10:46:42.293Z,30.80
2018-11-04T10:49:11.254Z,48.13
2018-11-04T10:51:40.152Z,21.17
2018-11-04T10:54:09.012Z,21.33
2018-11-04T10:56:37.931Z,21.10
2018-11-04T10:59:06.897Z,21.97
2018-11-04T11:01:35.845Z,23.97
2018-11-04T11:04:04.732Z,20.33
2018-11-04T11:06:33.608Z,23.77
2018-11-04T11:09:02.612Z,22.60
2018-11-04T11:11:31.516Z,25.63
2018-11-04T11:14:00.435Z,45.77
2018-11-04T11:16:29.348Z,28.73
2018-11-04T11:18:58.257Z,21.67
2018-11-04T11:21:27.163Z,24.40
2018-11-04T11:23:56.544Z,27.10
2018-11-04T11:26:25.540Z,27.13
2018-11-04T11:28:54.426Z,23.53
2018-11-04T11:31:23.320Z,22.60
2018-11-04T11:33:52.226Z,23.23
2018-11-04T11:36:21.164Z,23.30
2018-11-04T11:38:50.102Z,25.20
2018-11-04T11:41:19.051Z,23.57
2018-11-04T11:43:47.945Z,24.53
2018-11-04T11:46:16.882Z,23.43
2018-11-04T11:48:45.795Z,26.80
2018-11-04T11:51:14.704Z,26.67
2018-11-04T11:53:43.615Z,27.63
2018-11-04T11:56:12.505Z,28.10
2018-11-04T11:58:41.443Z,24.27
2018-11-04T12:01:10.327Z,29.37
2018-11-04T12:03:39.198Z,28.83
2018-11-04T12:06:08.147Z,21.87
2018-11-04T12:08:37.036Z,25.03
2018-11-04T12:11:06.319Z,24.03
2018-11-04T12:13:35.302Z,24.63
2018-11-04T12:16:04.223Z,31.40
2018-11-04T12:18:33.120Z,26.30
2018-11-04T12:21:02.024Z,25.10
2018-11-04T12:23:30.977Z,21.70
2018-11-04T12:25:59.899Z,31.97
2018-11-04T12:28:28.938Z,23.83
2018-11-04T12:30:57.825Z,25.63
2018-11-04T12:33:26.772Z,23.30
2018-11-04T12:35:55.652Z,24.10
2018-11-04T12:38:24.564Z,25.73
2018-11-04T12:40:53.533Z,23.33
2018-11-04T12:43:22.422Z,23.87
2018-11-04T12:45:51.348Z,27.43
2018-11-04T12:48:20.251Z,25.87
2018-11-04T12:50:49.194Z,25.10
2018-11-04T12:53:18.084Z,24.37
2018-11-04T12:55:46.943Z,24.07
2018-11-04T12:58:15.856Z,23.97
2018-11-04T13:00:44.737Z,25.47
2018-11-04T13:03:13.621Z,22.67
2018-11-04T13:05:42.504Z,24.43
2018-11-04T13:08:11.414Z,22.13
2018-11-04T13:10:40.368Z,24.23
2018-11-04T13:13:09.251Z,26.20
2018-11-04T13:15:38.137Z,28.20
2018-11-04T13:18:07.282Z,24.33
2018-11-04T13:20:36.185Z,22.00
2018-11-04T13:23:05.603Z,29.37
2018-11-04T13:25:34.565Z,24.17
2018-11-04T13:28:04.168Z,24.30
2018-11-04T13:30:33.115Z,25.17
2018-11-04T13:33:02.042Z,23.63
2018-11-04T13:35:31.039Z,24.60
2018-11-04T13:37:59.975Z,22.20
2018-11-04T13:40:28.872Z,22.33
2018-11-04T13:42:57.840Z,21.27
2018-11-04T13:45:26.779Z,21.17
2018-11-04T13:47:55.705Z,22.30
2018-11-04T13:50:24.635Z,24.07
2018-11-04T13:52:53.515Z,23.70
2018-11-04T13:55:23.148Z,25.57
2018-11-04T13:57:52.072Z,24.13
2018-11-04T14:00:21.547Z,24.90
2018-11-04T14:02:50.452Z,23.93
2018-11-04T14:05:19.366Z,27.67
2018-11-04T14:07:48.317Z,25.30
2018-11-04T14:10:17.368Z,20.73
2018-11-04T14:12:46.569Z,25.10
2018-11-04T14:15:15.763Z,22.43
2018-11-04T14:17:45.461Z,24.73
2018-11-04T14:20:14.382Z,25.97
2018-11-04T14:22:43.727Z,27.07
2018-11-04T14:25:13.125Z,23.67
2018-11-04T14:27:42.062Z,23.80
2018-11-04T14:30:12.985Z,25.30
2018-11-04T14:32:41.898Z,28.80
2018-11-04T14:35:11.456Z,31.43
2018-11-04T14:37:41.632Z,24.33
2018-11-04T14:40:12.841Z,27.30
2018-11-04T14:42:42.662Z,27.00
2018-11-04T14:45:11.606Z,36.35
2018-11-04T14:47:40.666Z,31.83
2018-11-04T14:50:12.504Z,26.73
2018-11-04T14:52:41.481Z,24.13
2018-11-04T14:55:10.411Z,32.07
2018-11-04T14:57:39.440Z,25.47
2018-11-04T15:00:10.940Z,28.57
2018-11-04T15:02:50.892Z,33.53
2018-11-04T15:05:27.351Z,38.73
2018-11-04T15:08:06.283Z,49.97
2018-11-04T15:10:44.722Z,28.53
2018-11-04T15:13:20.614Z,36.67
2018-11-04T15:15:57.676Z,29.80
2018-11-04T15:18:34.097Z,35.47
2018-11-04T15:21:13.081Z,28.57
2018-11-04T15:23:42.069Z,37.77
2018-11-04T15:26:11.135Z,29.90
2018-11-04T15:28:40.147Z,44.53
2018-11-04T15:31:09.135Z,35.67
2018-11-04T15:33:38.101Z,35.77
2018-11-04T15:36:08.594Z,30.30
2018-11-04T15:38:37.611Z,32.43
2018-11-04T15:41:06.992Z,32.80
2018-11-04T15:43:35.942Z,37.27
2018-11-04T15:46:04.899Z,41.67
2018-11-04T15:48:33.784Z,31.57
2018-11-04T15:51:02.699Z,33.23
2018-11-04T15:53:31.697Z,33.10
2018-11-04T15:56:00.627Z,35.20
2018-11-04T15:58:29.633Z,41.93
2018-11-04T16:00:58.560Z,55.50
2018-11-04T16:03:27.447Z,37.93
2018-11-04T16:05:56.412Z,34.17
2018-11-04T16:08:27.028Z,32.83
2018-11-04T16:10:55.912Z,35.47
2018-11-04T16:13:24.788Z,40.50
2018-11-04T16:15:53.743Z,48.03
2018-11-04T16:18:22.843Z,55.63
2018-11-04T16:20:51.577Z,45.03
2018-11-04T16:23:20.495Z,40.33
2018-11-04T16:25:49.381Z,39.57
2018-11-04T16:28:18.299Z,38.57
2018-11-04T16:30:48.329Z,41.50
2018-11-04T16:33:18.187Z,44.70
2018-11-04T16:35:47.625Z,40.93
2018-11-04T16:38:16.516Z,40.87
2018-11-04T16:40:45.477Z,39.40
2018-11-04T16:43:14.418Z,40.53
2018-11-04T16:45:43.407Z,46.77
2018-11-04T16:48:12.453Z,41.90
2018-11-04T16:50:41.332Z,46.13
2018-11-04T16:53:10.313Z,46.23
2018-11-04T16:55:39.315Z,44.70
2018-11-04T16:58:08.265Z,47.17
2018-11-04T17:00:37.775Z,42.07
2018-11-04T17:03:06.691Z,46.73
2018-11-04T17:05:35.773Z,50.90
2018-11-04T17:08:04.532Z,46.00
2018-11-04T17:10:33.440Z,43.17
2018-11-04T17:13:02.580Z,47.60
2018-11-04T17:15:31.532Z,43.07
2018-11-04T17:18:00.502Z,45.63
2018-11-04T17:20:29.439Z,43.87
2018-11-04T17:22:58.379Z,48.80
2018-11-04T17:25:27.288Z,47.87
2018-11-04T17:27:56.172Z,44.77
2018-11-04T17:30:25.113Z,44.03
2018-11-04T17:32:54.031Z,53.40
2018-11-04T17:35:22.937Z,50.43
2018-11-04T17:37:51.881Z,46.00
2018-11-04T17:40:20.807Z,49.03
2018-11-04T17:42:50.068Z,52.77
2018-11-04T17:45:19.049Z,45.53
2018-11-04T17:47:48.468Z,48.53
2018-11-04T17:50:18.646Z,50.20
2018-11-04T17:52:47.644Z,55.47
2018-11-04T17:55:16.768Z,49.20
2018-11-04T17:57:45.935Z,53.07
2018-11-04T18:00:16.260Z,49.70
2018-11-04T18:02:45.197Z,53.90
2018-11-04T18:05:14.508Z,51.47
2018-11-04T18:07:44.323Z,49.23
2018-11-04T18:10:14.451Z,50.63
2018-11-04T18:12:43.641Z,48.70
2018-11-04T18:15:13.628Z,48.30
2018-11-04T18:17:43.365Z,50.50
2018-11-04T18:20:12.982Z,53.23
2018-11-04T18:22:41.927Z,57.23
2018-11-04T18:25:12.385Z,48.30
2018-11-04T18:27:41.491Z,43.93
2018-11-04T18:30:12.687Z,51.97
2018-11-04T18:32:41.867Z,48.40
2018-11-04T18:35:11.526Z,74.80
2018-11-04T18:37:40.584Z,56.30
2018-11-04T18:40:12.125Z,46.10
2018-11-04T18:42:41.068Z,44.47
2018-11-04T18:45:11.615Z,44.20
2018-11-04T18:47:40.580Z,41.47
2018-11-04T18:50:10.659Z,42.60
2018-11-04T18:52:39.802Z,40.73
2018-11-04T18:55:09.883Z,44.27
2018-11-04T18:57:38.976Z,45.90
2018-11-04T19:00:10.142Z,44.80
2018-11-04T19:02:39.072Z,44.70
2018-11-04T19:05:08.565Z,39.97
2018-11-04T19:07:37.732Z,40.60
2018-11-04T19:10:08.533Z,38.93
2018-11-04T19:12:37.533Z,38.27
2018-11-04T19:15:06.713Z,42.53
2018-11-04T19:17:36.009Z,41.87
2018-11-04T19:20:05.943Z,42.77
2018-11-04T19:22:34.963Z,39.63
2018-11-04T19:25:03.903Z,43.17
2018-11-04T19:27:32.818Z,40.43
2018-11-04T19:30:01.785Z,39.20
2018-11-04T19:32:30.705Z,39.73
2018-11-04T19:34:59.684Z,42.87
2018-11-04T19:37:28.731Z,39.47
2018-11-04T19:39:58.388Z,40.03
2018-11-04T19:42:27.365Z,35.57
2018-11-04T19:44:56.198Z,35.40
2018-11-04T19:47:25.147Z,35.27
2018-11-04T19:49:54.051Z,43.17
2018-11-04T19:52:22.981Z,37.47
2018-11-04T19:54:51.968Z,37.13
2018-11-04T19:57:25.128Z,41.00
2018-11-04T19:59:54.229Z,39.13
2018-11-04T20:02:23.145Z,39.73
2018-11-04T20:04:52.768Z,39.27
2018-11-04T20:07:21.749Z,39.03
2018-11-04T20:09:50.668Z,38.00
2018-11-04T20:12:24.841Z,38.43
2018-11-04T20:14:54.062Z,39.40
2018-11-04T20:17:22.942Z,41.93
2018-11-04T20:19:57.148Z,38.10
2018-11-04T20:22:25.989Z,38.27
2018-11-04T20:25:00.109Z,37.40
2018-11-04T20:27:29.174Z,39.93
2018-11-04T20:29:58.068Z,37.57
2018-11-04T20:32:32.113Z,40.23
2018-11-04T20:35:01.062Z,33.23
2018-11-04T20:37:29.939Z,41.17
2018-11-04T20:40:04.085Z,36.50
2018-11-04T20:42:33.010Z,33.77
2018-11-04T20:45:02.074Z,38.17
2018-11-04T20:47:36.065Z,35.97
2018-11-04T20:50:10.784Z,33.40
2018-11-04T20:52:39.692Z,37.67
2018-11-04T20:55:08.737Z,37.37
2018-11-04T20:57:39.624Z,39.93
2018-11-04T21:00:11.091Z,36.57
2018-11-04T21:02:40.266Z,38.20
2018-11-04T21:05:09.049Z,36.43
2018-11-04T21:07:37.943Z,39.40
2018-11-04T21:10:08.689Z,40.77
2018-11-04T21:12:37.588Z,35.87
2018-11-04T21:15:06.834Z,39.30
2018-11-04T21:17:35.767Z,44.33
2018-11-04T21:20:04.843Z,46.27
2018-11-04T21:22:33.962Z,42.27
2018-11-04T21:25:02.981Z,43.47
2018-11-04T21:27:31.874Z,46.43
2018-11-04T21:30:00.859Z,45.07
2018-11-04T21:32:29.822Z,47.23
2018-11-04T21:34:58.754Z,45.87
2018-11-04T21:37:27.659Z,46.60
2018-11-04T21:39:56.625Z,42.87
2018-11-04T21:42:25.593Z,46.73
2018-11-04T21:44:54.431Z,51.57
2018-11-04T21:47:23.338Z,51.27
2018-11-04T21:49:52.260Z,51.77
2018-11-04T21:52:21.123Z,50.13
2018-11-04T21:54:50.032Z,51.97
2018-11-04T21:57:18.983Z,51.67
2018-11-04T21:59:47.852Z,53.93
2018-11-04T22:02:16.734Z,57.47
2018-11-04T22:04:45.779Z,52.93
2018-11-04T22:07:14.604Z,56.23
2018-11-04T22:09:43.532Z,55.20
2018-11-04T22:12:12.611Z,48.73
2018-11-04T22:14:41.525Z,48.30
2018-11-04T22:17:10.442Z,55.20
2018-11-04T22:19:39.436Z,53.40
2018-11-04T22:22:08.394Z,54.27
2018-11-04T22:24:37.260Z,57.60
2018-11-04T22:27:06.305Z,66.97
2018-11-04T22:29:35.198Z,57.63
2018-11-04T22:32:04.051Z,60.57
2018-11-04T22:34:32.946Z,57.80
2018-11-04T22:37:01.849Z,62.57
2018-11-04T22:39:30.740Z,61.47
2018-11-04T22:41:59.638Z,61.93
2018-11-04T22:44:28.524Z,50.33
2018-11-04T22:46:57.407Z,52.07
2018-11-04T22:49:26.704Z,51.60
2018-11-04T22:51:55.705Z,47.77
2018-11-04T22:54:24.577Z,43.30
2018-11-04T22:56:53.475Z,43.10
2018-11-04T22:59:22.352Z,37.03
2018-11-04T23:01:51.234Z,37.27
2018-11-04T23:04:27.313Z,39.80
2018-11-04T23:06:56.213Z,35.73
2018-11-04T23:09:25.107Z,36.57
2018-11-04T23:11:54.049Z,35.10
2018-11-04T23:14:22.959Z,41.37
2018-11-04T23:16:51.852Z,42.97
2018-11-04T23:19:20.811Z,36.93
2018-11-04T23:21:49.768Z,36.17
2018-11-04T23:24:18.770Z,38.17
2018-11-04T23:26:47.747Z,40.73
2018-11-04T23:29:16.717Z,36.47
2018-11-04T23:31:45.640Z,38.77
2018-11-04T23:34:14.528Z,36.47
2018-11-04T23:36:43.490Z,38.43
2018-11-04T23:39:12.364Z,39.67
2018-11-04T23:41:41.544Z,34.30
2018-11-04T23:44:10.581Z,36.00
2018-11-04T23:46:39.479Z,33.67
2018-11-04T23:49:08.335Z,37.13
2018-11-04T23:51:37.324Z,39.73
2018-11-04T23:54:06.709Z,31.50
2018-11-04T23:56:35.651Z,34.77
2018-11-04T23:59:04.555Z,34.40
